Afton, Texas
Current Conditions -  °F | °C
As of 3:53 PM on Thursday 23 Oct 2014 (Local Time) from KCDS Reporting Station
Clear Clear  
Wind Chill: 82°   Ceiling: Unl
Heat Index: 82°   Visibility: 10mi
Dew Point: 59°   Wind: 6mph
Humidity: 45%   Direction: 190°S
Pressure: 30.04"   Gusts: NA
Location:  33.76°N, 100.82°W
Report Text: KCDS 232053Z AUTO 19005KT 10SM CLR 28/15 A3004 RMK AO2 SLP150 T02780150 56027
Loading
Personal Weather Stations






























Interactive Weather Map
Tropical Storm Tracking
New forecast layout! Learn more

10-Day Weather Forecast

Advertisements
Track Severe Weather on mobile